Latest Coastal Weather Observations for Dennes Point

IDT60701

Issued at 1:32 am EST Tuesday 28 April 2015 (issued every 10 minutes, with the page automatically refreshed every 10 minutes)

About coastal observations | Map of coastal stations | Coastal observations for TAS | Marine services | Other Formats
Station Details ID: 094255 Name: DENNES POINT Lat: -43.06 Lon: 147.36 Height: 5.67 m
Data from the previous 72 hours. | See also: Recent months at Dennes Point
Date/Time
EST
Temp

°C
Wind Pressure Rain
since 9am
mm
Weather Cloud Vis
km
Sea
Height
m
Swell
Dir
 
Speed
knots
Gust
knots
hPa Trend Height
m
Period
s
Dir
28/01:30am 10.9 W 8 12 1023.6 - 0.0 - - - - - - -
28/01:00am 10.4 WSW 7 10 1023.6 - 0.0 - - - - - - -
28/12:30am 9.2 SSW 4 5 1023.6 - 0.0 - - - - - - -
28/12:00am 10.3 SSW 4 5 1023.5 - 0.0 - - - - - - -
 
Date/Time
EST
Temp

°C
Wind Pressure Rain
since 9am
mm
Weather Cloud Vis
km
Sea
Height
m
Swell
Dir
 
Speed
knots
Gust
knots
hPa Trend Height
m
Period
s
Dir
27/11:30pm 10.1 SW 5 7 1023.3 - 0.0 - - - - - - -
27/11:00pm 10.3 W 4 6 1023.3 - 0.0 - - - - - - -
27/10:30pm 10.9 WNW 6 8 1023.2 - 0.0 - - - - - - -
27/10:00pm 10.7 WNW 8 10 1023.2 - 0.0 - - - - - - -
27/09:30pm 11.1 WNW 10 11 1023.0 - 0.0 - - - - - - -
27/09:00pm 11.2 WNW 11 13 1023.0 - 0.0 - - - - - - -
27/08:30pm 11.2 W 9 11 1022.8 - 0.0 - - - - - - -
27/08:00pm 11.4 WSW 8 13 1022.6 - 0.0 - - - - - - -
27/07:30pm 11.3 WSW 5 9 1022.2 - 0.0 - - - - - - -
27/07:00pm 10.5 SSW 5 7 1021.8 - 0.0 - - - - - - -
27/06:30pm 11.2 SW 7 11 1021.5 - 0.0 - - - - - - -
27/06:00pm 11.4 SW 7 10 1021.2 - 0.0 - - - - - - -
27/05:30pm 11.7 SW 9 13 1020.8 - 0.0 - - - - - - -
27/05:00pm 11.4 SSW 7 10 1020.5 - 0.0 - - - - - - -
27/04:30pm 11.4 SSW 6 11 1020.3 - 0.0 - - - - - - -
27/04:00pm 11.7 S 9 13 1020.2 - 0.0 - - - - - - -
27/03:30pm 12.0 S 10 14 1020.0 - 0.0 - - - - - - -
27/03:00pm 12.9 S 8 12 1019.5 - 0.0 - - - - - - -
27/02:30pm 12.3 S 7 11 1019.1 - 0.0 - - - - - - -
27/02:00pm 13.1 S 6 10 1018.9 - 0.0 - - - - - - -
27/01:30pm 13.1 SSE 6 9 1018.8 - 0.0 - - - - - - -
27/01:00pm 14.1 SW 8 11 1018.6 - 0.0 - - - - - - -
27/12:30pm 13.1 SW 7 11 1018.9 - 0.0 - - - - - - -
27/12:00pm 13.2 SW 9 16 1019.1 - 0.0 - - - - - - -
27/11:30am 12.4 WSW 14 19 1019.1 - 0.0 - - - - - - -
27/11:00am 13.6 WSW 12 15 1019.0 - 0.0 - - - - - - -
27/10:30am 13.1 SW 11 14 1018.8 - 0.0 - - - - - - -
27/10:00am 12.0 WSW 10 13 1018.7 - 0.0 - - - - - - -
27/09:30am 12.2 WSW 8 10 1018.4 - 0.0 - - - - - - -
27/09:00am 11.1 SW 8 12 1018.2 - 0.0 - - - - - - -
27/08:30am 10.9 WSW 7 10 1017.9 - 0.0 - - - - - - -
27/08:00am 10.3 WSW 8 11 1017.5 - 0.0 - - - - - - -
27/07:30am 9.7 SW 7 11 1017.2 - 0.0 - - - - - - -
27/07:00am 9.6 WSW 8 11 1016.8 - 0.0 - - - - - - -
27/06:30am 9.7 W 11 13 1016.4 - 0.0 - - - - - - -
27/06:00am 9.8 WSW 8 11 1016.1 - 0.0 - - - - - - -
27/05:30am 9.9 WSW 8 10 1016.0 - 0.0 - - - - - - -
27/05:00am 9.4 W 9 11 1015.7 - 0.0 - - - - - - -
27/04:30am 9.8 W 7 9 1015.5 - 0.0 - - - - - - -
27/04:00am 9.5 W 7 9 1015.2 - 0.0 - - - - - - -
27/03:30am 9.6 W 8 11 1015.0 - 0.0 - - - - - - -
27/03:00am 9.7 WSW 9 12 1015.1 - 0.0 - - - - - - -
27/02:30am 9.8 WSW 11 14 1015.1 - 0.0 - - - - - - -
27/02:00am 9.4 WSW 9 11 1015.0 - 0.0 - - - - - - -
27/01:30am 9.6 WSW 12 16 1015.0 - 0.0 - - - - - - -
27/01:00am 10.0 WSW 13 20 1015.1 - 0.0 - - - - - - -
27/12:30am 9.8 SW 8 10 1015.1 - 0.0 - - - - - - -
27/12:00am 10.0 WSW 10 14 1014.9 - 0.0 - - - - - - -
 
Date/Time
EST
Temp

°C
Wind Pressure Rain
since 9am
mm
Weather Cloud Vis
km
Sea
Height
m
Swell
Dir
 
Speed
knots
Gust
knots
hPa Trend Height
m
Period
s
Dir
26/11:30pm 10.0 WSW 10 15 1014.8 - 0.0 - - - - - - -
26/11:00pm 9.9 WSW 9 11 1014.9 - 0.0 - - - - - - -
26/10:30pm 10.0 WSW 10 14 1014.9 - 0.0 - - - - - - -
26/10:00pm 10.0 WSW 9 12 1014.9 - 0.0 - - - - - - -
26/09:30pm 9.8 WSW 9 12 1014.8 - 0.0 - - - - - - -
26/09:00pm 10.1 WSW 12 14 1014.6 - 0.0 - - - - - - -
26/08:30pm 10.1 WSW 12 17 1014.3 - 0.0 - - - - - - -
26/08:00pm 10.5 WSW 12 15 1014.2 - 0.0 - - - - - - -
26/07:30pm 10.7 WSW 9 12 1014.1 - 0.0 - - - - - - -
26/07:00pm 10.6 SW 8 12 1013.7 - 0.0 - - - - - - -
26/06:30pm 10.3 SSW 5 8 1013.4 - 0.0 - - - - - - -
26/06:00pm 10.6 S 4 7 1013.0 - 0.0 - - - - - - -
26/05:30pm 11.3 SW 7 9 1012.6 - 0.0 - - - - - - -
26/05:00pm 11.7 SW 10 13 1012.2 - 0.0 - - - - - - -
26/04:30pm 12.2 WSW 10 12 1012.0 - 0.0 - - - - - - -
26/04:00pm 12.8 WSW 16 22 1011.5 - 0.0 - - - - - - -
26/03:30pm 14.3 WSW 12 17 1011.2 - 0.0 - - - - - - -
26/03:00pm 13.4 WSW 11 16 1011.0 - 0.0 - - - - - - -
26/02:30pm 13.3 WSW 12 17 1011.0 - 0.0 - - - - - - -
26/02:00pm 12.8 W 14 19 1011.1 - 0.0 - - - - - - -
26/01:30pm 13.4 W 12 16 1011.0 - 0.0 - - - - - - -
26/01:00pm 13.4 W 15 19 1011.2 - 0.0 - - - - - - -
26/12:30pm 13.2 W 14 20 1011.2 - 0.0 - - - - - - -
26/12:00pm 13.0 W 10 12 1011.6 - 0.0 - - - - - - -
26/11:30am 13.9 W 12 15 1012.0 - 0.0 - - - - - - -
26/11:00am 12.9 W 13 17 1012.3 - 0.0 - - - - - - -
26/10:30am 11.7 W 8 11 1012.6 - 0.0 - - - - - - -
26/10:00am 11.8 W 6 8 1013.0 - 0.0 - - - - - - -
26/09:30am 11.6 W 6 8 1013.2 - 0.0 - - - - - - -
26/09:00am 10.4 W 11 16 1013.3 - 0.2 - - - - - - -
26/08:30am 9.9 WSW 9 12 1013.6 - 0.2 - - - - - - -
26/08:00am 9.7 WSW 7 9 1013.5 - 0.2 - - - - - - -
26/07:30am 9.4 W 11 13 1013.3 - 0.2 - - - - - - -
26/07:00am 9.3 W 5 8 1013.0 - 0.2 - - - - - - -
26/06:30am 8.5 SW 4 6 1012.9 - 0.2 - - - - - - -
26/06:00am 8.3 S 3 5 1012.9 - 0.2 - - - - - - -
26/05:30am 8.8 W 3 4 1012.9 - 0.2 - - - - - - -
26/05:00am 8.3 W 3 5 1012.9 - 0.2 - - - - - - -
26/04:30am 7.4 W 4 5 1012.9 - 0.2 - - - - - - -
26/04:00am 8.0 W 3 4 1012.8 - 0.2 - - - - - - -
26/03:30am 8.0 W 3 5 1012.9 - 0.2 - - - - - - -
26/03:00am 8.4 W 4 7 1013.2 - 0.2 - - - - - - -
26/02:30am 8.3 SSW 4 6 1013.2 - 0.2 - - - - - - -
26/02:00am 9.4 W 3 5 1013.3 - 0.2 - - - - - - -
26/01:30am 9.6 WSW 5 9 1013.4 - 0.2 - - - - - - -
26/01:00am 9.8 SW 6 8 1013.4 - 0.2 - - - - - - -
26/12:30am 9.4 SW 5 7 1013.3 - 0.2 - - - - - - -
26/12:00am 9.7 WSW 8 10 1013.3 - 0.2 - - - - - - -
 
Date/Time
EST
Temp

°C
Wind Pressure Rain
since 9am
mm
Weather Cloud Vis
km
Sea
Height
m
Swell
Dir
 
Speed
knots
Gust
knots
hPa Trend Height
m
Period
s
Dir
25/11:30pm 9.7 WSW 8 10 1013.4 - 0.2 - - - - - - -
25/11:00pm 9.3 SSW 5 6 1013.6 - 0.2 - - - - - - -
25/10:30pm 9.6 SW 8 11 1013.6 - 0.2 - - - - - - -
25/10:00pm 9.9 SW 7 9 1013.8 - 0.2 - - - - - - -
25/09:30pm 9.9 WSW 7 10 1013.8 - 0.2 - - - - - - -
25/09:00pm 9.9 SW 7 9 1013.8 - 0.2 - - - - - - -
25/08:30pm 10.1 SW 5 7 1013.7 - 0.2 - - - - - - -
25/08:00pm 10.0 SW 7 9 1013.6 - 0.2 - - - - - - -
25/07:30pm 10.2 SW 5 8 1013.5 - 0.2 - - - - - - -
25/07:00pm 10.3 SSW 2 3 1013.3 - 0.2 - - - - - - -
25/06:30pm 10.4 S 4 9 1013.0 - 0.2 - - - - - - -
25/06:00pm 10.5 SSW 5 7 1012.6 - 0.2 - - - - - - -
25/05:30pm 10.6 SW 6 11 1012.3 - 0.2 - - - - - - -
25/05:00pm 10.7 SSW 7 10 1012.0 - 0.2 - - - - - - -
25/04:30pm 11.2 S 6 12 1011.8 - 0.2 - - - - - - -
25/04:00pm 11.6 SW 5 8 1011.5 - 0.2 - - - - - - -
25/03:30pm 11.6 SSW 7 11 1011.3 - 0.2 - - - - - - -
25/03:00pm 12.0 SW 8 13 1011.1 - 0.2 - - - - - - -
25/02:30pm 11.8 SSW 9 13 1010.9 - 0.2 - - - - - - -
25/02:00pm 12.5 SSW 9 13 1010.7 - 0.2 - - - - - - -
25/01:30pm 12.1 SSW 7 10 1010.8 - 0.2 - - - - - - -
25/01:00pm 12.9 SW 7 10 1010.8 - 0.2 - - - - - - -
25/12:30pm 13.2 SW 8 11 1010.7 - 0.2 - - - - - - -
25/12:00pm 13.3 WSW 9 13 1010.8 - 0.2 Recent precip. - - - - - -
25/11:30am 13.1 SSW 7 13 1010.9 - 0.2 - - - - - - -
25/11:00am 12.2 SW 10 15 1010.9 - 0.0 - - - - - - -
25/10:30am 11.7 SW 9 13 1010.7 - 0.0 - - - - - - -
25/10:00am 11.5 SSW 7 12 1010.7 - 0.0 - - - - - - -
25/09:30am 11.0 SSW 7 13 1010.5 - 0.0 - - - - - - -
25/09:00am 10.8 SSW 7 10 1010.2 - 2.4 - - - - - - -
25/08:30am 10.7 SSW 6 10 1010.0 - 2.4 - - - - - - -
25/08:00am 10.0 SSW 8 14 1009.6 - 2.4 - - - - - - -
25/07:30am 10.3 SW 9 13 1009.1 - 2.4 - - - - - - -
25/07:00am 10.4 SSW 10 15 1008.4 - 2.4 - - - - - - -
25/06:30am 10.8 SW 9 16 1008.0 - 2.2 - - - - - - -
25/06:00am 10.8 S 4 6 1007.3 - 1.4 - - - - - - -
25/05:30am 11.1 SW 5 9 1007.0 - 1.4 - - - - - - -
25/05:00am 11.1 WSW 7 9 1006.7 - 1.4 - - - - - - -
25/04:30am 11.3 W 9 12 1006.4 - 1.4 - - - - - - -
25/04:00am 11.1 WSW 7 10 1006.2 - 1.4 - - - - - - -
25/03:30am 11.1 SW 9 12 1005.9 - 1.2 - - - - - - -
25/03:00am 11.1 SSW 5 8 1005.8 - 1.2 Rain - - - - - -
25/02:30am 11.4 SSW 8 13 1005.7 - 1.0 - - - - - - -
25/02:00am 11.9 SSW 4 5 1005.5 - 1.0 - - - - - - -

Other Formats:

Comma delimited format used in spreadsheet applications
http://www.bom.gov.au/fwo/IDT60701/IDT60701.94988.axf

JavaScript Object Notation format (JSON) in row-major order
http://www.bom.gov.au/fwo/IDT60701/IDT60701.94988.json